Time,TemperatureF,DewpointF,PressureIn,WindDirection,WindDirectionDegrees,WindSpeedMPH,WindSpeedGustMPH,Humidity,HourlyPrecipIn,Conditions,Clouds,dailyrainin,SoftwareType,DateUTC
2013-07-15 06:00:00,71.4,69.9,30.27,East,86,0.0,0.0,95,0.00,,,0.00,Wunderground v.1.15,2013-07-15 11:00:00,
2013-07-15 06:05:00,71.5,70.0,30.27,ENE,75,0.0,1.0,95,0.00,,,0.00,Wunderground v.1.15,2013-07-15 11:05:00,
2013-07-15 06:10:00,71.7,69.9,30.28,NE,52,1.0,1.0,94,0.00,,,0.00,Wunderground v.1.15,2013-07-15 11:10:00,
2013-07-15 06:20:00,72.1,70.3,30.28,NE,52,2.0,2.0,94,0.00,,,0.00,Wunderground v.1.15,2013-07-15 11:20:00,
2013-07-15 06:30:00,72.6,70.5,30.28,ENE,58,2.0,4.0,93,0.00,,,0.00,Wunderground v.1.15,2013-07-15 11:30:00,
2013-07-15 06:40:00,72.9,70.8,30.28,ENE,64,4.0,4.0,93,0.00,,,0.00,Wunderground v.1.15,2013-07-15 11:40:00,
2013-07-15 06:45:00,73.1,71.0,30.28,ENE,63,3.0,4.0,93,0.00,,,0.00,Wunderground v.1.15,2013-07-15 11:45:00,
2013-07-15 06:50:00,73.0,70.9,30.29,East,80,3.0,3.0,93,0.00,,,0.00,Wunderground v.1.15,2013-07-15 11:50:00,
2013-07-15 06:55:00,73.0,70.9,30.29,ENE,70,1.0,3.0,93,0.00,,,0.00,Wunderground v.1.15,2013-07-15 11:55:00,
2013-07-15 07:00:00,73.1,71.0,30.29,NE,52,1.0,2.0,93,0.00,,,0.00,Wunderground v.1.15,2013-07-15 12:00:00,
2013-07-15 07:10:00,73.8,71.3,30.29,ENE,64,2.0,2.0,92,0.00,,,0.00,Wunderground v.1.15,2013-07-15 12:10:00,
2013-07-15 07:20:00,74.2,71.7,30.30,NE,56,2.0,2.0,92,0.00,,,0.00,Wunderground v.1.15,2013-07-15 12:20:00,
2013-07-15 07:25:00,74.4,71.9,30.30,ENE,58,2.0,2.0,92,0.00,,,0.00,Wunderground v.1.15,2013-07-15 12:25:00,
2013-07-15 07:35:00,75.0,71.9,30.30,East,82,1.0,1.0,90,0.00,,,0.00,Wunderground v.1.15,2013-07-15 12:35:00,
2013-07-15 07:40:00,75.3,72.2,30.30,ENE,70,2.0,4.0,90,0.00,,,0.00,Wunderground v.1.15,2013-07-15 12:40:00,
2013-07-15 07:50:00,75.5,72.4,30.31,ENE,58,3.0,4.0,90,0.00,,,0.00,Wunderground v.1.15,2013-07-15 12:50:00,
2013-07-15 08:00:00,76.6,72.8,30.31,ENE,58,2.0,3.0,88,0.00,,,0.00,Wunderground v.1.15,2013-07-15 13:00:00,
2013-07-15 08:10:00,76.6,72.8,30.31,East,84,2.0,2.0,88,0.00,,,0.00,Wunderground v.1.15,2013-07-15 13:10:00,
2013-07-15 08:15:00,76.6,72.8,30.31,ENE,65,1.0,3.0,88,0.00,,,0.00,Wunderground v.1.15,2013-07-15 13:15:00,
2013-07-15 08:20:00,76.7,72.9,30.31,North,354,1.0,1.0,88,0.00,,,0.00,Wunderground v.1.15,2013-07-15 13:20:00,
2013-07-15 08:30:00,77.6,73.1,30.31,NE,52,2.0,3.0,86,0.00,,,0.00,Wunderground v.1.15,2013-07-15 13:30:00,
2013-07-15 08:40:00,79.0,73.7,30.31,NE,49,2.0,2.0,84,0.00,,,0.00,Wunderground v.1.15,2013-07-15 13:40:00,
2013-07-15 08:45:00,79.2,73.6,30.31,NE,39,2.0,2.0,83,0.00,,,0.00,Wunderground v.1.15,2013-07-15 13:45:00,
2013-07-15 08:50:00,79.3,73.3,30.31,ENE,58,2.0,2.0,82,0.00,,,0.00,Wunderground v.1.15,2013-07-15 13:50:00,
2013-07-15 08:55:00,79.2,73.6,30.31,NNE,17,2.0,2.0,83,0.00,,,0.00,Wunderground v.1.15,2013-07-15 13:55:00,
2013-07-15 09:00:00,79.5,73.5,30.31,East,79,1.0,1.0,82,0.00,,,0.00,Wunderground v.1.15,2013-07-15 14:00:00,
2013-07-15 09:10:00,79.9,73.9,30.31,ESE,117,1.0,1.0,82,0.00,,,0.00,Wunderground v.1.15,2013-07-15 14:10:00,
2013-07-15 09:15:00,80.5,74.5,30.31,ENE,71,1.0,5.0,82,0.00,,,0.00,Wunderground v.1.15,2013-07-15 14:15:00,
2013-07-15 09:25:00,80.9,73.8,30.31,ENE,64,3.0,3.0,79,0.00,,,0.00,Wunderground v.1.15,2013-07-15 14:25:00,
2013-07-15 09:35:00,81.7,74.9,30.31,ENE,58,2.0,3.0,80,0.00,,,0.00,Wunderground v.1.15,2013-07-15 14:35:00,
2013-07-15 09:40:00,82.4,74.5,30.31,SSE,167,1.0,1.0,77,0.00,,,0.00,Wunderground v.1.15,2013-07-15 14:40:00,
2013-07-15 09:50:00,84.0,75.2,30.31,East,101,1.0,1.0,75,0.00,,,0.00,Wunderground v.1.15,2013-07-15 14:50:00,
2013-07-15 10:00:00,84.9,75.7,30.31,South,186,1.0,1.0,74,0.00,,,0.00,Wunderground v.1.15,2013-07-15 15:00:00,
2013-07-15 10:15:00,85.9,74.5,30.31,South,181,2.0,2.0,69,0.00,,,0.00,Wunderground v.1.15,2013-07-15 15:15:00,
2013-07-15 10:20:00,86.2,74.0,30.31,WSW,237,2.0,2.0,67,0.00,,,0.00,Wunderground v.1.15,2013-07-15 15:20:00,
2013-07-15 10:30:00,86.6,73.9,30.31,SE,145,1.0,2.0,66,0.00,,,0.00,Wunderground v.1.15,2013-07-15 15:30:00,
2013-07-15 10:40:00,87.0,73.8,30.31,SE,141,1.0,2.0,65,0.00,,,0.00,Wunderground v.1.15,2013-07-15 15:40:00,
2013-07-15 10:55:00,87.7,73.1,30.31,SSE,155,0.0,1.0,62,0.00,,,0.00,Wunderground v.1.15,2013-07-15 15:55:00,
2013-07-15 11:00:00,87.6,73.0,30.31,South,172,1.0,1.0,62,0.00,,,0.00,Wunderground v.1.15,2013-07-15 16:00:00,
2013-07-15 11:10:00,87.2,73.5,30.31,SSW,197,1.0,1.0,64,0.00,,,0.00,Wunderground v.1.15,2013-07-15 16:10:00,
2013-07-15 11:20:00,87.2,73.1,30.31,SE,143,1.0,1.0,63,0.00,,,0.00,Wunderground v.1.15,2013-07-15 16:20:00,
2013-07-15 11:25:00,87.3,73.6,30.31,SE,141,1.0,1.0,64,0.00,,,0.00,Wunderground v.1.15,2013-07-15 16:25:00,
2013-07-15 11:35:00,87.5,73.3,30.31,South,177,1.0,1.0,63,0.00,,,0.00,Wunderground v.1.15,2013-07-15 16:35:00,
2013-07-15 11:40:00,87.7,73.5,30.31,SE,135,1.0,1.0,63,0.00,,,0.00,Wunderground v.1.15,2013-07-15 16:40:00,
2013-07-15 12:15:00,88.7,74.5,30.31,South,169,1.0,2.0,63,0.00,,,0.00,Wunderground v.1.15,2013-07-15 17:15:00,
2013-07-15 12:25:00,89.0,73.8,30.31,SSE,153,2.0,3.0,61,0.00,,,0.00,Wunderground v.1.15,2013-07-15 17:25:00,
2013-07-15 12:30:00,89.1,73.9,30.31,South,172,1.0,2.0,61,0.00,,,0.00,Wunderground v.1.15,2013-07-15 17:30:00,
2013-07-15 12:35:00,89.1,72.4,30.31,SSE,165,0.0,2.0,58,0.00,,,0.00,Wunderground v.1.15,2013-07-15 17:35:00,
2013-07-15 12:45:00,89.5,74.8,30.30,SW,218,0.0,0.0,62,0.00,,,0.00,Wunderground v.1.15,2013-07-15 17:45:00,
2013-07-15 12:50:00,89.3,74.1,30.30,SSE,156,1.0,1.0,61,0.00,,,0.00,Wunderground v.1.15,2013-07-15 17:50:00,
2013-07-15 13:00:00,89.9,74.6,30.30,ENE,74,0.0,1.0,61,0.00,,,0.00,Wunderground v.1.15,2013-07-15 18:00:00,
2013-07-15 13:10:00,89.6,73.9,30.30,SSW,199,1.0,1.0,60,0.00,,,0.00,Wunderground v.1.15,2013-07-15 18:10:00,
2013-07-15 13:15:00,89.0,74.3,30.30,SSE,156,1.0,1.0,62,0.00,,,0.00,Wunderground v.1.15,2013-07-15 18:15:00,
2013-07-15 13:20:00,89.0,74.3,30.30,SW,225,1.0,1.0,62,0.00,,,0.00,Wunderground v.1.15,2013-07-15 18:20:00,
2013-07-15 13:30:00,89.6,73.9,30.29,NE,41,1.0,1.0,60,0.00,,,0.00,Wunderground v.1.15,2013-07-15 18:30:00,
2013-07-15 13:40:00,88.7,74.0,30.29,ENE,76,1.0,1.0,62,0.00,,,0.00,Wunderground v.1.15,2013-07-15 18:40:00,
2013-07-15 13:45:00,88.0,74.8,30.29,SE,136,1.0,1.0,65,0.00,,,0.00,Wunderground v.1.15,2013-07-15 18:45:00,
2013-07-15 13:55:00,87.4,74.2,30.29,SE,139,2.0,3.0,65,0.00,,,0.00,Wunderground v.1.15,2013-07-15 18:55:00,
2013-07-15 14:00:00,87.3,74.5,30.29,East,79,2.0,2.0,66,0.00,,,0.00,Wunderground v.1.15,2013-07-15 19:00:00,
2013-07-15 14:10:00,87.2,74.9,30.29,ENE,63,1.0,2.0,67,0.00,,,0.00,Wunderground v.1.15,2013-07-15 19:10:00,
2013-07-15 14:25:00,87.1,74.4,30.28,SW,219,2.0,2.0,66,0.00,,,0.00,Wunderground v.1.15,2013-07-15 19:25:00,
2013-07-15 14:40:00,88.2,74.0,30.28,NE,37,2.0,2.0,63,0.00,,,0.00,Wunderground v.1.15,2013-07-15 19:40:00,
2013-07-15 14:45:00,88.4,74.2,30.27,East,79,3.0,3.0,63,0.00,,,0.00,Wunderground v.1.15,2013-07-15 19:45:00,
2013-07-15 14:55:00,87.2,73.1,30.27,ENE,70,5.0,7.0,63,0.00,,,0.00,Wunderground v.1.15,2013-07-15 19:55:00,
2013-07-15 15:00:00,87.3,75.0,30.27,ESE,102,4.0,4.0,67,0.00,,,0.00,Wunderground v.1.15,2013-07-15 20:00:00,
2013-07-15 15:10:00,87.4,75.1,30.27,East,94,4.0,4.0,67,0.00,,,0.00,Wunderground v.1.15,2013-07-15 20:10:00,
2013-07-15 15:20:00,87.3,73.2,30.27,NNE,33,4.0,4.0,63,0.00,,,0.00,Wunderground v.1.15,2013-07-15 20:20:00,
2013-07-15 15:30:00,87.4,75.5,30.27,ENE,78,5.0,7.0,68,0.00,,,0.00,Wunderground v.1.15,2013-07-15 20:30:00,
2013-07-15 15:35:00,87.1,75.3,30.26,NE,43,7.0,7.0,68,0.00,,,0.00,Wunderground v.1.15,2013-07-15 20:35:00,
2013-07-15 15:45:00,85.9,75.4,30.27,NE,49,9.0,12.0,71,0.00,,,0.00,Wunderground v.1.15,2013-07-15 20:45:00,
2013-07-15 15:55:00,85.0,74.5,30.26,NE,46,10.0,12.0,71,0.00,,,0.00,Wunderground v.1.15,2013-07-15 20:55:00,
2013-07-15 16:00:00,84.8,75.2,30.27,ENE,58,10.0,10.0,73,0.00,,,0.00,Wunderground v.1.15,2013-07-15 21:00:00,
2013-07-15 16:10:00,84.6,75.8,30.26,ENE,70,8.0,8.0,75,0.00,,,0.00,Wunderground v.1.15,2013-07-15 21:10:00,
2013-07-15 16:20:00,85.4,75.3,30.26,ENE,68,6.0,6.0,72,0.00,,,0.00,Wunderground v.1.15,2013-07-15 21:20:00,
2013-07-15 16:30:00,85.3,74.8,30.26,East,92,4.0,4.0,71,0.00,,,0.00,Wunderground v.1.15,2013-07-15 21:30:00,
2013-07-15 16:35:00,85.3,74.8,30.26,ENE,58,4.0,4.0,71,0.00,,,0.00,Wunderground v.1.15,2013-07-15 21:35:00,
2013-07-15 16:45:00,85.9,75.4,30.26,ENE,63,5.0,9.0,71,0.00,,,0.00,Wunderground v.1.15,2013-07-15 21:45:00,
2013-07-15 16:50:00,86.2,75.7,30.26,ENE,72,4.0,5.0,71,0.00,,,0.00,Wunderground v.1.15,2013-07-15 21:50:00,
2013-07-15 17:00:00,86.4,75.9,30.25,ESE,103,3.0,3.0,71,0.00,,,0.00,Wunderground v.1.15,2013-07-15 22:00:00,
2013-07-15 17:15:00,86.9,75.9,30.25,NE,55,6.0,8.0,70,0.00,,,0.00,Wunderground v.1.15,2013-07-15 22:15:00,
2013-07-15 17:20:00,87.0,76.5,30.25,ENE,64,7.0,7.0,71,0.00,,,0.00,Wunderground v.1.15,2013-07-15 22:20:00,
2013-07-15 17:30:00,86.6,76.9,30.25,SE,138,6.0,6.0,73,0.00,,,0.00,Wunderground v.1.15,2013-07-15 22:30:00,
2013-07-15 17:40:00,87.2,77.1,30.25,South,188,2.0,2.0,72,0.00,,,0.00,Wunderground v.1.15,2013-07-15 22:40:00,
2013-07-15 17:45:00,87.6,76.6,30.25,ESE,109,1.0,2.0,70,0.00,,,0.00,Wunderground v.1.15,2013-07-15 22:45:00,
2013-07-15 17:55:00,87.2,76.6,30.25,ESE,102,2.0,2.0,71,0.00,,,0.00,Wunderground v.1.15,2013-07-15 22:55:00,
2013-07-15 18:00:00,87.1,76.1,30.25,ENE,74,3.0,5.0,70,0.00,,,0.00,Wunderground v.1.15,2013-07-15 23:00:00,
2013-07-15 18:10:00,86.9,76.4,30.25,NE,56,3.0,3.0,71,0.00,,,0.00,Wunderground v.1.15,2013-07-15 23:10:00,
2013-07-15 18:15:00,86.6,76.1,30.25,SE,125,2.0,3.0,71,0.00,,,0.00,Wunderground v.1.15,2013-07-15 23:15:00,
2013-07-15 18:20:00,86.3,75.8,30.25,East,93,1.0,1.0,71,0.00,,,0.00,Wunderground v.1.15,2013-07-15 23:20:00,
2013-07-15 18:30:00,85.8,76.1,30.25,ENE,67,1.0,1.0,73,0.00,,,0.00,Wunderground v.1.15,2013-07-15 23:30:00,
2013-07-15 18:40:00,85.4,76.2,30.25,East,90,0.0,0.0,74,0.00,,,0.00,Wunderground v.1.15,2013-07-15 23:40:00,
2013-07-15 18:45:00,85.3,76.5,30.25,ESE,103,0.0,0.0,75,0.00,,,0.00,Wunderground v.1.15,2013-07-15 23:45:00,
2013-07-15 18:50:00,85.1,76.3,30.25,East,95,0.0,0.0,75,0.00,,,0.00,Wunderground v.1.15,2013-07-15 23:50:00,
2013-07-15 19:00:00,84.6,75.8,30.25,SW,224,1.0,1.0,75,0.00,,,0.00,Wunderground v.1.15,2013-07-16 00:00:00,
2013-07-15 19:10:00,84.0,75.6,30.25,NE,44,0.0,1.0,76,0.00,,,0.00,Wunderground v.1.15,2013-07-16 00:10:00,
2013-07-15 19:20:00,83.3,74.9,30.26,East,94,1.0,1.0,76,0.00,,,0.00,Wunderground v.1.15,2013-07-16 00:20:00,
2013-07-15 19:35:00,82.5,74.9,30.26,NE,36,0.0,0.0,78,0.00,,,0.00,Wunderground v.1.15,2013-07-16 00:35:00,
2013-07-15 19:40:00,82.4,74.8,30.26,NE,36,0.0,0.0,78,0.00,,,0.00,Wunderground v.1.15,2013-07-16 00:40:00,
2013-07-15 19:55:00,81.5,74.7,30.26,SSW,210,0.0,0.0,80,0.00,,,0.00,Wunderground v.1.15,2013-07-16 00:55:00,
2013-07-15 20:05:00,81.0,75.0,30.26,SSW,210,0.0,0.0,82,0.00,,,0.00,Wunderground v.1.15,2013-07-16 01:05:00,
2013-07-15 20:15:00,80.3,74.7,30.25,SSW,210,0.0,0.0,83,0.00,,,0.00,Wunderground v.1.15,2013-07-16 01:15:00,
2013-07-15 20:25:00,79.6,74.7,30.25,SW,229,0.0,0.0,85,0.00,,,0.00,Wunderground v.1.15,2013-07-16 01:25:00,
2013-07-15 20:30:00,79.3,74.4,30.25,SW,229,0.0,0.0,85,0.00,,,0.00,Wunderground v.1.15,2013-07-16 01:30:00,
2013-07-15 20:35:00,79.1,74.5,30.25,SW,230,0.0,0.0,86,0.00,,,0.00,Wunderground v.1.15,2013-07-16 01:35:00,
2013-07-15 20:50:00,78.1,74.3,30.25,SW,229,0.0,0.0,88,0.00,,,0.00,Wunderground v.1.15,2013-07-16 01:50:00,
2013-07-15 20:55:00,77.7,74.2,30.26,SW,229,0.0,0.0,89,0.00,,,0.00,Wunderground v.1.15,2013-07-16 01:55:00,
2013-07-15 21:00:00,77.3,73.8,30.26,SW,229,0.0,0.0,89,0.00,,,0.00,Wunderground v.1.15,2013-07-16 02:00:00,
2013-07-15 21:10:00,77.1,73.9,30.26,SW,229,0.0,0.0,90,0.00,,,0.00,Wunderground v.1.15,2013-07-16 02:10:00,
2013-07-15 21:15:00,77.0,73.8,30.26,SW,229,0.0,0.0,90,0.00,,,0.00,Wunderground v.1.15,2013-07-16 02:15:00,
2013-07-15 21:20:00,76.9,73.7,30.26,SW,229,0.0,0.0,90,0.00,,,0.00,Wunderground v.1.15,2013-07-16 02:20:00,
2013-07-15 21:35:00,76.5,73.7,30.27,SW,229,0.0,0.0,91,0.00,,,0.00,Wunderground v.1.15,2013-07-16 02:35:00,
2013-07-15 21:45:00,76.3,73.5,30.27,West,281,0.0,0.0,91,0.00,,,0.00,Wunderground v.1.15,2013-07-16 02:45:00,
2013-07-15 21:50:00,76.3,73.5,30.28,West,281,0.0,0.0,91,0.00,,,0.00,Wunderground v.1.15,2013-07-16 02:50:00,
2013-07-15 22:00:00,76.3,73.5,30.28,West,280,0.0,0.0,91,0.00,,,0.00,Wunderground v.1.15,2013-07-16 03:00:00,